Time;durP1;ratioP1;P1;durP2;ratioP2;P2;SDS_P1;SDS_P2;PMS_P1;PMS_P2;Temp;Humidity;BMP_temperature;BMP_pressure;BME280_temperature;BME280_humidity;BME280_pressure;Samples;Min_cycle;Max_cycle;Signal;HPM_P1;HPM_P2
2023/03/07 00:01:04;;;;;;;78.93;30.77;;;;;;;-37.54;100.00;92890.75;4205199;28;20336;-64
2023/03/07 00:03:30;;;;;;;73.57;29.47;;;;;;;-37.44;100.00;92891.22;4208024;28;20311;-64
2023/03/07 00:06:05;;;;;;;77.90;28.97;;;;;;;-37.37;100.00;92895.06;4199691;28;20327;-67
2023/03/07 00:08:32;;;;;;;68.47;28.37;;;;;;;-37.43;100.00;92892.81;4178073;28;20250;-65
2023/03/07 00:11:00;;;;;;;72.77;28.83;;;;;;;-37.26;100.00;92893.06;4205877;28;20241;-66
2023/03/07 00:13:31;;;;;;;72.40;28.63;;;;;;;-37.21;100.00;92895.34;4205953;28;20247;-67
2023/03/07 00:16:02;;;;;;;72.60;28.20;;;;;;;-37.18;100.00;92887.88;4181994;28;22420;-65
2023/03/07 00:18:29;;;;;;;75.20;29.03;;;;;;;-37.22;100.00;92888.81;4210944;28;22606;-66
2023/03/07 00:21:01;;;;;;;77.00;29.60;;;;;;;-37.38;100.00;92893.44;4190906;28;20320;-66
2023/03/07 00:23:28;;;;;;;71.47;28.80;;;;;;;-37.45;100.00;92884.69;4182013;28;21225;-67
2023/03/07 00:25:59;;;;;;;72.60;28.90;;;;;;;-37.35;100.00;92893.38;4192432;28;20308;-66
2023/03/07 00:28:25;;;;;;;72.40;28.17;;;;;;;-37.32;100.00;92893.25;4196506;28;21449;-66
2023/03/07 00:30:52;;;;;;;70.67;28.60;;;;;;;-37.17;100.00;92891.13;4201220;28;20232;-65
2023/03/07 00:33:18;;;;;;;76.63;29.40;;;;;;;-37.23;100.00;92895.41;4221378;28;22306;-65
2023/03/07 00:35:59;;;;;;;73.70;27.73;;;;;;;-37.23;100.00;92890.47;4203191;28;20319;-63
2023/03/07 00:38:28;;;;;;;71.93;29.10;;;;;;;-37.32;100.00;92890.78;4204096;28;20330;-67
2023/03/07 00:40:59;;;;;;;68.50;28.33;;;;;;;-37.51;100.00;92888.16;4198615;28;20335;-65
2023/03/07 00:43:26;;;;;;;70.90;28.70;;;;;;;-37.30;100.00;92886.63;4203944;28;20236;-65
2023/03/07 00:45:53;;;;;;;70.63;28.87;;;;;;;-37.33;100.00;92881.84;4195290;28;20316;-66
2023/03/07 00:48:20;;;;;;;69.63;28.57;;;;;;;-37.25;100.00;92888.94;4204252;28;20228;-63
2023/03/07 00:50:48;;;;;;;67.90;27.47;;;;;;;-37.27;100.00;92888.97;4206161;28;20233;-65
2023/03/07 00:53:15;;;;;;;60.70;24.60;;;;;;;-37.49;100.00;92884.00;4202222;28;20228;-63
2023/03/07 00:55:52;;;;;;;58.83;21.97;;;;;;;-37.58;100.00;92886.00;4199825;28;21428;-64
2023/03/07 00:58:19;;;;;;;55.03;22.53;;;;;;;-37.53;100.00;92889.09;4206198;28;21624;-65
2023/03/07 01:00:45;;;;;;;52.87;21.73;;;;;;;-37.48;100.00;92882.34;4208494;28;23655;-63
2023/03/07 01:03:11;;;;;;;49.97;21.30;;;;;;;-37.54;100.00;92892.38;4209772;28;20607;-64
2023/03/07 01:05:39;;;;;;;51.90;20.37;;;;;;;-37.63;100.00;92891.84;4207625;28;25618;-64
2023/03/07 01:08:05;;;;;;;43.17;17.80;;;;;;;-37.61;99.94;92886.91;4203308;28;20412;-63
2023/03/07 01:10:32;;;;;;;43.73;17.57;;;;;;;-37.56;100.00;92884.28;4197990;28;20254;-65
2023/03/07 01:12:59;;;;;;;41.33;16.80;;;;;;;-37.65;99.52;92882.94;4184191;28;21366;-64
2023/03/07 01:15:26;;;;;;;42.53;17.17;;;;;;;-37.73;99.67;92888.09;4207664;28;20326;-63
2023/03/07 01:17:53;;;;;;;41.47;16.10;;;;;;;-37.87;99.89;92877.91;4205114;28;20248;-64
2023/03/07 01:20:19;;;;;;;41.47;16.47;;;;;;;-37.87;99.64;92886.09;4204460;28;20339;-63
2023/03/07 01:22:46;;;;;;;43.17;16.57;;;;;;;-38.07;99.75;92879.38;4202698;28;21908;-64
2023/03/07 01:25:13;;;;;;;46.10;18.77;;;;;;;-38.23;100.00;92877.47;4227676;28;20240;-66
2023/03/07 01:27:40;;;;;;;42.30;17.47;;;;;;;-38.31;100.00;92875.25;4197622;28;20231;-66
2023/03/07 01:30:08;;;;;;;43.40;17.40;;;;;;;-38.51;100.00;92871.75;4204777;28;20332;-63
2023/03/07 01:32:34;;;;;;;47.10;18.00;;;;;;;-38.47;100.00;92879.84;4204915;28;20283;-65
2023/03/07 01:35:01;;;;;;;42.57;17.67;;;;;;;-38.51;100.00;92871.75;4190356;28;20285;-64
2023/03/07 01:37:27;;;;;;;46.70;17.70;;;;;;;-38.49;100.00;92876.63;4180032;28;20362;-61
2023/03/07 01:39:54;;;;;;;41.17;15.73;;;;;;;-38.60;100.00;92873.69;4203968;28;20398;-64
2023/03/07 01:42:21;;;;;;;38.27;15.73;;;;;;;-38.56;100.00;92876.00;4207981;28;20616;-63
2023/03/07 01:45:34;;;;;;;43.27;17.33;;;;;;;-38.60;100.00;92872.03;4187173;28;20240;-64
2023/03/07 01:48:01;;;;;;;44.33;17.23;;;;;;;-38.61;100.00;92872.88;4198551;28;21702;-64
2023/03/07 01:50:27;;;;;;;43.13;18.20;;;;;;;-38.65;100.00;92866.47;4202030;28;20708;-64
2023/03/07 01:52:56;;;;;;;44.63;17.33;;;;;;;-38.67;100.00;92873.06;4197427;28;22002;-62
2023/03/07 01:55:26;;;;;;;51.10;18.50;;;;;;;-38.66;100.00;92864.88;4203231;28;21641;-63
2023/03/07 01:57:53;;;;;;;47.33;18.50;;;;;;;-38.78;100.00;92866.03;4204173;28;22093;-64
2023/03/07 02:00:27;;;;;;;48.60;18.17;;;;;;;-38.94;100.00;92869.81;4189908;28;22226;-64
2023/03/07 02:03:09;;;;;;;48.37;17.33;;;;;;;-38.97;100.00;92865.81;4205188;28;20385;-67
2023/03/07 02:05:42;;;;;;;45.57;17.57;;;;;;;-39.10;100.00;92863.75;4204719;28;20625;-64
2023/03/07 02:08:10;;;;;;;49.23;18.07;;;;;;;-39.16;100.00;92869.59;4179672;28;23615;-65
2023/03/07 02:10:38;;;;;;;63.10;21.40;;;;;;;-39.27;100.00;92864.19;4195085;28;22847;-64
2023/03/07 02:13:04;;;;;;;53.23;21.13;;;;;;;-39.31;100.00;92863.47;4206124;28;20232;-63
2023/03/07 02:15:33;;;;;;;54.97;21.60;;;;;;;-39.30;100.00;92871.63;4178224;28;20307;-65
2023/03/07 02:17:59;;;;;;;55.57;21.47;;;;;;;-39.27;100.00;92871.53;4187740;28;20238;-65
2023/03/07 02:20:38;;;;;;;53.33;21.20;;;;;;;-39.29;100.00;92865.91;4213984;28;23102;-64
2023/03/07 02:23:07;;;;;;;60.23;21.90;;;;;;;-39.25;100.00;92870.66;4220877;28;20965;-62
2023/03/07 02:25:48;;;;;;;65.10;22.73;;;;;;;-39.17;100.00;92863.09;4215846;28;20635;-63
2023/03/07 02:28:16;;;;;;;59.10;23.73;;;;;;;-39.23;100.00;92863.25;4213645;28;25234;-62
2023/03/07 02:30:56;;;;;;;59.47;23.87;;;;;;;-39.23;100.00;92860.81;4196191;28;22479;-63
2023/03/07 02:33:23;;;;;;;67.80;25.23;;;;;;;-39.25;100.00;92865.78;4215211;28;20266;-63
2023/03/07 02:35:55;;;;;;;76.07;25.67;;;;;;;-39.24;100.00;92859.22;4212482;28;21429;-65
2023/03/07 02:38:23;;;;;;;64.77;26.37;;;;;;;-39.27;100.00;92866.63;4211623;28;20234;-66
2023/03/07 02:40:51;;;;;;;69.50;25.97;;;;;;;-39.20;100.00;92861.56;4184618;28;20914;-64
2023/03/07 02:43:18;;;;;;;69.50;26.30;;;;;;;-39.17;100.00;92868.00;4211067;28;20306;-64
2023/03/07 02:45:45;;;;;;;80.63;27.30;;;;;;;-39.20;100.00;92858.31;4203795;28;20246;-63
2023/03/07 02:48:12;;;;;;;73.07;27.73;;;;;;;-39.34;100.00;92857.03;4211729;28;20235;-64
2023/03/07 02:50:39;;;;;;;78.10;30.00;;;;;;;-39.36;100.00;92863.63;4207142;28;20253;-63
2023/03/07 02:53:05;;;;;;;77.73;29.37;;;;;;;-39.37;100.00;92862.03;4208020;28;21691;-63
2023/03/07 02:55:32;;;;;;;90.17;31.43;;;;;;;-39.47;100.00;92862.31;4216766;28;20287;-64
2023/03/07 02:57:59;;;;;;;89.20;31.43;;;;;;;-39.46;100.00;92857.41;4230438;28;22612;-63
2023/03/07 03:00:25;;;;;;;93.27;32.40;;;;;;;-39.33;100.00;92865.16;4222381;28;20421;-63
2023/03/07 03:02:52;;;;;;;98.13;35.37;;;;;;;-39.46;100.00;92864.75;4201038;28;20301;-61
2023/03/07 03:05:19;;;;;;;102.70;35.03;;;;;;;-39.36;100.00;92858.75;4218508;28;20240;-64
2023/03/07 03:07:45;;;;;;;113.93;35.97;;;;;;;-39.25;100.00;92860.88;4208436;28;21739;-64
2023/03/07 03:10:12;;;;;;;125.93;37.30;;;;;;;-39.22;100.00;92860.78;4212823;28;20310;-64
2023/03/07 03:12:38;;;;;;;207.03;41.00;;;;;;;-39.22;100.00;92852.66;4213436;28;20323;-65
2023/03/07 03:15:05;;;;;;;241.33;42.20;;;;;;;-39.30;100.00;92852.03;4217665;28;21685;-64
2023/03/07 03:17:32;;;;;;;440.90;50.00;;;;;;;-39.41;100.00;92852.38;4216103;28;23106;-64
2023/03/07 03:19:58;;;;;;;414.77;46.27;;;;;;;-39.56;100.00;92856.03;4223729;28;20240;-62
2023/03/07 03:22:25;;;;;;;177.77;37.33;;;;;;;-39.58;100.00;92852.81;4209860;28;20318;-62
2023/03/07 03:24:51;;;;;;;456.07;47.63;;;;;;;-39.71;100.00;92852.34;4215891;28;20420;-62
2023/03/07 03:27:18;;;;;;;298.03;42.33;;;;;;;-39.62;100.00;92848.88;4202772;28;20294;-65
2023/03/07 03:29:45;;;;;;;110.13;36.03;;;;;;;-39.52;100.00;92845.31;4201573;28;22769;-62
2023/03/07 03:32:11;;;;;;;358.73;45.87;;;;;;;-39.60;100.00;92840.66;4205396;28;20239;-64
2023/03/07 03:34:38;;;;;;;221.17;41.70;;;;;;;-39.65;100.00;92847.31;4206027;28;22255;-63
2023/03/07 03:37:04;;;;;;;201.53;39.77;;;;;;;-39.57;100.00;92844.66;4198112;28;21784;-63
2023/03/07 03:39:33;;;;;;;213.97;40.30;;;;;;;-39.53;100.00;92841.28;4206838;28;20394;-65
2023/03/07 03:41:59;;;;;;;422.50;47.03;;;;;;;-39.70;100.00;92850.69;4202771;28;20735;-62
2023/03/07 03:44:26;;;;;;;270.30;40.60;;;;;;;-39.86;100.00;92838.09;4201072;28;20314;-64
2023/03/07 03:46:52;;;;;;;203.00;42.07;;;;;;;-39.83;100.00;92843.72;4207676;28;20247;-63
2023/03/07 03:49:19;;;;;;;237.83;40.67;;;;;;;-39.90;100.00;92839.81;4215182;28;20240;-64
2023/03/07 03:51:45;;;;;;;487.50;48.43;;;;;;;-40.05;100.00;92842.66;4204343;28;20308;-64
2023/03/07 03:54:12;;;;;;;279.07;41.33;;;;;;;-40.09;100.00;92841.13;4208166;28;20224;-64
2023/03/07 03:56:38;;;;;;;257.23;41.77;;;;;;;-40.10;100.00;92844.41;4206928;28;20307;-63
2023/03/07 03:59:05;;;;;;;240.70;41.67;;;;;;;-40.14;100.00;92843.69;4203846;28;21601;-63
2023/03/07 04:01:31;;;;;;;202.47;39.57;;;;;;;-40.16;100.00;92844.53;4201356;28;21842;-64
2023/03/07 04:03:58;;;;;;;188.63;38.20;;;;;;;-40.08;100.00;92838.63;4205453;28;20403;-65
2023/03/07 04:06:30;;;;;;;237.07;41.27;;;;;;;-40.07;100.00;92841.88;4205168;28;20707;-65
2023/03/07 04:08:57;;;;;;;134.23;36.53;;;;;;;-39.95;100.00;92839.16;4201684;28;20347;-64
2023/03/07 04:11:24;;;;;;;431.93;47.03;;;;;;;-40.01;100.00;92839.28;4202654;28;20366;-62
2023/03/07 04:13:51;;;;;;;474.57;49.90;;;;;;;-40.37;100.00;92839.41;4203725;28;20319;-64
2023/03/07 04:16:17;;;;;;;120.43;34.60;;;;;;;-40.24;100.00;92833.34;4199827;28;20774;-63
2023/03/07 04:18:44;;;;;;;227.27;38.60;;;;;;;-40.22;100.00;92835.75;4199701;28;20319;-65
2023/03/07 04:21:11;;;;;;;200.23;38.17;;;;;;;-40.07;100.00;92834.56;4191636;28;21857;-63
2023/03/07 04:23:38;;;;;;;318.73;43.83;;;;;;;-40.01;100.00;92835.19;4194185;28;22434;-65
2023/03/07 04:26:06;;;;;;;378.80;43.87;;;;;;;-40.20;100.00;92834.06;4192667;28;20332;-61
2023/03/07 04:28:44;;;;;;;270.83;41.10;;;;;;;-40.34;100.00;92836.88;4197377;28;22959;-64
2023/03/07 04:31:15;;;;;;;456.93;49.80;;;;;;;-40.34;100.00;92840.97;4191800;28;21865;-64
2023/03/07 04:33:42;;;;;;;271.57;42.90;;;;;;;-40.14;100.00;92835.53;4182669;28;22303;-61
2023/03/07 04:36:09;;;;;;;308.87;41.97;;;;;;;-40.11;100.00;92833.03;4183623;28;20405;-63
2023/03/07 04:38:37;;;;;;;168.17;38.90;;;;;;;-40.18;100.00;92821.81;4197115;28;20232;-63
2023/03/07 04:41:05;;;;;;;152.23;40.77;;;;;;;-40.08;100.00;92828.06;4176656;28;20256;-64
2023/03/07 04:43:31;;;;;;;152.40;39.27;;;;;;;-40.10;100.00;92827.31;4192947;28;21606;-64
2023/03/07 04:45:58;;;;;;;233.47;42.80;;;;;;;-40.21;100.00;92823.50;4193940;28;20350;-63
2023/03/07 04:48:24;;;;;;;188.97;38.90;;;;;;;-40.12;100.00;92821.66;4192879;28;20243;-64
2023/03/07 04:50:51;;;;;;;132.77;38.73;;;;;;;-40.06;100.00;92821.50;4189162;28;20244;-63
2023/03/07 04:53:18;;;;;;;157.40;38.30;;;;;;;-40.08;100.00;92814.19;4193625;28;20237;-64
2023/03/07 04:55:45;;;;;;;172.97;39.23;;;;;;;-40.04;100.00;92822.28;4178942;28;20229;-63
2023/03/07 04:58:12;;;;;;;167.70;37.93;;;;;;;-40.10;100.00;92815.09;4190909;28;24480;-63
2023/03/07 05:00:43;;;;;;;219.20;41.90;;;;;;;-40.14;100.00;92818.44;4195503;28;21003;-66
2023/03/07 05:03:10;;;;;;;144.90;39.67;;;;;;;-39.99;100.00;92810.72;4193375;28;21175;-64
2023/03/07 05:05:37;;;;;;;205.93;39.87;;;;;;;-39.82;100.00;92815.19;4191591;28;22450;-65
2023/03/07 05:08:04;;;;;;;132.07;36.63;;;;;;;-39.69;100.00;92820.53;4194969;28;20305;-64
2023/03/07 05:10:32;;;;;;;176.50;40.20;;;;;;;-39.62;100.00;92817.88;4192062;28;20229;-64
2023/03/07 05:12:59;;;;;;;137.10;38.57;;;;;;;-39.63;100.00;92818.69;4179551;28;22366;-66
2023/03/07 05:15:26;;;;;;;140.07;38.87;;;;;;;-39.65;100.00;92820.41;4202357;28;20744;-62
2023/03/07 05:17:53;;;;;;;161.13;41.67;;;;;;;-39.54;100.00;92821.75;4191280;28;21339;-64
2023/03/07 05:20:19;;;;;;;166.47;41.20;;;;;;;-39.52;100.00;92825.75;4189084;28;20241;-63
2023/03/07 05:22:46;;;;;;;217.27;41.87;;;;;;;-39.55;100.00;92823.41;4191217;28;20272;-63
2023/03/07 05:25:13;;;;;;;175.40;42.87;;;;;;;-39.53;100.00;92829.06;4197679;28;20239;-64
2023/03/07 05:27:40;;;;;;;194.23;43.07;;;;;;;-39.58;100.00;92823.47;4189245;28;20273;-64
2023/03/07 05:30:07;;;;;;;295.77;46.13;;;;;;;-39.60;100.00;92820.25;4179620;28;20245;-64
2023/03/07 05:32:33;;;;;;;364.77;48.70;;;;;;;-39.58;100.00;92823.47;4187828;28;21801;-63
2023/03/07 05:35:00;;;;;;;249.37;44.17;;;;;;;-39.65;100.00;92836.69;4176304;28;26109;-62
2023/03/07 05:37:27;;;;;;;230.00;38.40;;;;;;;-39.66;100.00;92827.78;4191481;28;20407;-65
2023/03/07 05:39:53;;;;;;;173.10;38.67;;;;;;;-39.71;100.00;92829.53;4199559;28;26406;-65
2023/03/07 05:42:20;;;;;;;144.77;37.07;;;;;;;-39.65;100.00;92832.63;4225008;28;20531;-65
2023/03/07 05:44:47;;;;;;;195.97;40.07;;;;;;;-39.62;100.00;92831.75;4201092;28;22098;-61
2023/03/07 05:47:13;;;;;;;186.20;40.83;;;;;;;-39.51;100.00;92838.78;4202526;28;21147;-67
2023/03/07 05:49:40;;;;;;;282.07;43.63;;;;;;;-39.59;100.00;92839.78;4212402;28;20236;-65
2023/03/07 05:52:07;;;;;;;254.10;45.07;;;;;;;-39.62;100.00;92830.09;4209030;28;21622;-66
2023/03/07 05:54:33;;;;;;;149.83;44.10;;;;;;;-39.59;100.00;92831.66;4216714;28;20236;-68
2023/03/07 05:57:00;;;;;;;150.43;44.83;;;;;;;-39.53;100.00;92833.94;4215596;28;20275;-68
2023/03/07 05:59:26;;;;;;;158.00;45.33;;;;;;;-39.54;100.00;92837.22;4209112;28;20237;-65
2023/03/07 06:01:53;;;;;;;163.23;45.40;;;;;;;-39.47;100.00;92841.09;4192979;28;22255;-65
2023/03/07 06:04:19;;;;;;;142.33;44.30;;;;;;;-39.38;100.00;92840.06;4209208;28;20324;-66
2023/03/07 06:06:46;;;;;;;159.97;45.57;;;;;;;-39.28;100.00;92838.13;4196585;28;21207;-66
2023/03/07 06:09:12;;;;;;;160.33;44.87;;;;;;;-39.30;100.00;92833.25;4190300;28;20613;-66
2023/03/07 06:11:39;;;;;;;151.40;44.53;;;;;;;-39.30;100.00;92828.38;4207354;28;20241;-66
2023/03/07 06:14:06;;;;;;;147.33;45.13;;;;;;;-39.27;100.00;92823.41;4208649;28;20297;-64
2023/03/07 06:16:33;;;;;;;148.40;42.83;;;;;;;-39.10;100.00;92834.38;4204036;28;22181;-66
2023/03/07 06:18:59;;;;;;;152.17;43.17;;;;;;;-39.07;100.00;92835.06;4195664;28;20237;-64
2023/03/07 06:21:26;;;;;;;155.03;44.80;;;;;;;-39.10;100.00;92835.16;4215342;28;20332;-64
2023/03/07 06:23:52;;;;;;;155.73;41.17;;;;;;;-39.14;100.00;92834.44;4202363;28;20233;-66
2023/03/07 06:26:19;;;;;;;144.53;43.17;;;;;;;-39.14;100.00;92840.97;4210869;28;21805;-66
2023/03/07 06:28:45;;;;;;;143.10;39.23;;;;;;;-39.28;100.00;92845.47;4177501;28;20423;-66
2023/03/07 06:31:15;;;;;;;157.73;38.07;;;;;;;-39.37;100.00;92846.53;4188208;28;20632;-62
2023/03/07 06:33:42;;;;;;;130.40;36.00;;;;;;;-39.37;100.00;92846.53;4177427;28;20942;-65
2023/03/07 06:36:11;;;;;;;112.13;34.00;;;;;;;-39.39;100.00;92849.06;4192763;28;21300;-68
2023/03/07 06:38:38;;;;;;;125.63;36.90;;;;;;;-39.42;100.00;92839.31;4176189;28;20321;-66
2023/03/07 06:41:05;;;;;;;112.70;35.33;;;;;;;-39.36;100.00;92831.03;4194735;28;20253;-64
2023/03/07 06:43:32;;;;;;;140.10;37.70;;;;;;;-39.42;100.00;92832.00;4200594;28;20233;-62
2023/03/07 06:45:59;;;;;;;132.73;37.70;;;;;;;-39.40;100.00;92827.84;4198893;28;20226;-63
2023/03/07 06:48:25;;;;;;;127.63;36.13;;;;;;;-39.34;100.00;92832.56;4190534;28;20264;-66
2023/03/07 06:50:52;;;;;;;120.30;35.37;;;;;;;-39.23;100.00;92829.00;4184255;28;20249;-67
2023/03/07 06:53:19;;;;;;;119.27;36.80;;;;;;;-39.15;100.00;92829.59;4194660;28;21685;-64
2023/03/07 06:55:49;;;;;;;118.20;34.60;;;;;;;-39.02;100.00;92823.50;4204687;28;21608;-69
2023/03/07 06:58:16;;;;;;;121.83;36.17;;;;;;;-39.05;100.00;92818.69;4186562;28;20592;-70
2023/03/07 07:00:43;;;;;;;119.00;35.53;;;;;;;-39.00;100.00;92821.81;4180776;28;21346;-69
2023/03/07 07:03:13;;;;;;;127.50;35.93;;;;;;;-38.88;100.00;92813.25;4193844;28;21942;-71
2023/03/07 07:05:41;;;;;;;120.70;34.97;;;;;;;-38.66;100.00;92817.53;4186709;28;20579;-67
2023/03/07 07:08:08;;;;;;;128.30;36.83;;;;;;;-38.75;100.00;92816.97;4204937;28;20255;-67
2023/03/07 07:10:35;;;;;;;93.53;31.07;;;;;;;-38.75;100.00;92806.38;4189542;28;20244;-62
2023/03/07 07:13:03;;;;;;;94.20;30.47;;;;;;;-38.75;100.00;92802.25;4175897;28;20300;-66
2023/03/07 07:15:31;;;;;;;93.50;30.53;;;;;;;-38.53;100.00;92807.28;4186897;28;20222;-66
2023/03/07 07:17:57;;;;;;;98.10;30.53;;;;;;;-38.33;100.00;92799.31;4186488;28;21396;-67
2023/03/07 07:20:24;;;;;;;90.63;30.33;;;;;;;-38.35;100.00;92805.09;4204231;28;20233;-66
2023/03/07 07:22:50;;;;;;;93.87;31.13;;;;;;;-38.16;100.00;92800.41;4202653;28;20253;-66
2023/03/07 07:25:17;;;;;;;84.53;28.63;;;;;;;-37.84;100.00;92797.69;4202181;28;20240;-65
2023/03/07 07:27:43;;;;;;;77.57;26.87;;;;;;;-37.87;100.00;92800.25;4201688;28;20423;-67
2023/03/07 07:30:11;;;;;;;85.47;27.83;;;;;;;-37.74;100.00;92792.47;4204038;28;22214;-66
2023/03/07 07:32:37;;;;;;;80.50;26.87;;;;;;;-37.58;99.05;92790.28;4202594;28;20414;-67
2023/03/07 07:35:05;;;;;;;73.50;25.83;;;;;;;-37.64;97.86;92788.81;4199867;28;20241;-66
2023/03/07 07:37:31;;;;;;;74.47;25.87;;;;;;;-38.06;98.39;92790.28;4200135;28;20309;-67
2023/03/07 07:39:58;;;;;;;82.20;28.33;;;;;;;-37.96;98.88;92793.19;4200913;28;20440;-65
2023/03/07 07:42:24;;;;;;;74.93;26.20;;;;;;;-37.92;99.92;92788.97;4207688;28;20255;-65
2023/03/07 07:44:51;;;;;;;68.27;25.43;;;;;;;-37.64;99.37;92789.63;4206659;28;21617;-65
2023/03/07 07:47:17;;;;;;;73.53;24.93;;;;;;;-36.60;96.36;92789.13;4231540;28;20285;-66
2023/03/07 07:49:44;;;;;;;60.83;23.10;;;;;;;-34.21;89.35;92796.13;4209092;28;20981;-67
2023/03/07 07:52:10;;;;;;;57.37;21.47;;;;;;;-32.02;73.42;92808.97;4222446;28;20238;-70
2023/03/07 07:54:37;;;;;;;57.67;21.73;;;;;;;-31.00;65.10;92826.38;4226883;28;21990;-67
2023/03/07 07:57:04;;;;;;;51.13;19.93;;;;;;;-30.06;60.41;92823.28;4233173;28;20691;-67
2023/03/07 07:59:32;;;;;;;53.93;20.60;;;;;;;-29.28;55.13;92813.44;4215005;28;21838;-65
2023/03/07 08:02:00;;;;;;;51.00;20.30;;;;;;;-28.68;52.21;92819.47;4250529;28;22243;-66
2023/03/07 08:04:27;;;;;;;46.17;19.70;;;;;;;-28.31;48.55;92818.72;4213663;28;20240;-67
2023/03/07 08:06:54;;;;;;;47.63;19.23;;;;;;;-26.42;45.12;92822.81;4349364;28;21525;-67
2023/03/07 08:09:20;;;;;;;51.37;20.97;;;;;;;-25.24;40.34;92827.09;4217574;28;21485;-66
2023/03/07 08:11:47;;;;;;;48.77;20.50;;;;;;;-24.00;37.47;92830.53;4195579;28;20406;-67
2023/03/07 08:14:15;;;;;;;46.17;18.67;;;;;;;-24.52;36.48;92825.59;4200809;28;21508;-68
2023/03/07 08:16:42;;;;;;;40.63;19.20;;;;;;;-25.22;36.00;92824.50;4210212;28;20389;-65
2023/03/07 13:30:04;;;;;;;35.77;15.87;;;;;;;-31.65;74.04;92363.28;4505418;28;20302;-75
2023/03/07 13:32:49;;;;;;;32.87;15.40;;;;;;;-31.68;74.44;92360.22;4217460;28;20249;-73
2023/03/07 13:35:31;;;;;;;32.03;15.73;;;;;;;-31.66;74.33;92349.31;4211199;28;20983;-72
2023/03/07 13:38:09;;;;;;;34.80;16.27;;;;;;;-31.66;75.05;92343.56;4208014;28;26211;-72
2023/03/07 13:40:42;;;;;;;36.43;15.67;;;;;;;-31.72;74.71;92339.78;4205402;28;20228;-73
2023/03/07 13:43:18;;;;;;;35.20;15.90;;;;;;;-31.67;75.19;92337.81;4195604;28;23074;-74
2023/03/07 13:45:46;;;;;;;31.97;15.50;;;;;;;-31.73;75.33;92323.34;4202016;28;20649;-74
2023/03/07 13:48:19;;;;;;;31.57;15.20;;;;;;;-31.68;74.74;92323.03;4204346;28;21820;-73
2023/03/07 13:50:52;;;;;;;32.97;15.37;;;;;;;-31.73;74.85;92323.34;4199465;28;20496;-75
2023/03/07 13:53:59;;;;;;;29.40;15.20;;;;;;;-31.74;74.83;92321.72;4210469;28;20235;-76
2023/03/07 13:56:28;;;;;;;33.77;14.43;;;;;;;-31.73;75.01;92320.84;4203641;28;21475;-73
2023/03/07 13:59:12;;;;;;;30.20;14.63;;;;;;;-31.67;75.10;92317.19;4191788;28;23202;-74
2023/03/07 14:01:43;;;;;;;39.10;15.50;;;;;;;-31.69;74.63;92311.53;4213183;28;22138;-75
2023/03/07 14:04:19;;;;;;;32.63;15.47;;;;;;;-31.63;74.01;92309.47;4220538;28;20368;-72
2023/03/07 14:07:15;;;;;;;35.80;15.13;;;;;;;-31.59;74.47;92308.38;4224961;28;20503;-76
2023/03/07 14:09:44;;;;;;;32.03;14.00;;;;;;;-31.61;72.84;92302.72;4210295;28;22035;-75
2023/03/07 14:12:37;;;;;;;37.37;14.77;;;;;;;-31.53;73.65;92298.97;4196899;28;20234;-73
2023/03/07 14:15:35;;;;;;;30.53;14.30;;;;;;;-31.60;73.96;92301.84;4205866;28;20513;-70
2023/03/07 14:18:26;;;;;;;31.67;14.33;;;;;;;-31.56;74.24;92294.22;4209257;28;22489;-74
2023/03/07 14:20:55;;;;;;;34.87;14.30;;;;;;;-31.54;73.18;92297.38;4205336;28;20485;-74
2023/03/07 14:23:33;;;;;;;30.77;13.93;;;;;;;-31.55;72.46;92290.81;4205260;28;26405;-76
2023/03/07 14:26:26;;;;;;;29.60;12.93;;;;;;;-31.52;72.49;92291.44;4210572;28;20241;-77
2023/03/07 14:29:23;;;;;;;33.27;12.83;;;;;;;-31.50;70.62;92288.88;4195609;28;20239;-75
2023/03/07 14:31:52;;;;;;;28.87;13.00;;;;;;;-31.59;70.97;92296.00;4234283;28;20236;-73
2023/03/07 14:34:33;;;;;;;33.10;13.07;;;;;;;-31.60;71.18;92289.47;4216370;28;20245;-71
2023/03/07 14:37:03;;;;;;;25.50;11.87;;;;;;;-31.56;71.04;92281.81;4194482;28;20290;-72
2023/03/07 14:39:45;;;;;;;30.27;12.67;;;;;;;-31.65;71.53;92296.38;4206691;28;22939;-70
2023/03/07 14:42:35;;;;;;;28.70;12.90;;;;;;;-31.60;70.70;92279.53;4196486;28;21807;-74
2023/03/07 14:45:07;;;;;;;32.07;12.27;;;;;;;-31.64;71.48;92277.34;4205893;28;20311;-75
2023/03/07 14:48:22;;;;;;;26.87;12.30;;;;;;;-31.65;71.17;92275.75;4208371;28;20344;-74
2023/03/07 14:50:49;;;;;;;26.33;11.67;;;;;;;-31.65;70.51;92274.06;4184197;28;23077;-71
2023/03/07 14:53:27;;;;;;;27.23;12.30;;;;;;;-31.71;70.95;92257.13;4191633;28;20389;-76
2023/03/07 14:55:54;;;;;;;39.43;16.00;;;;;;;-31.72;70.72;92254.75;4216360;28;20377;-73
2023/03/07 14:58:31;;;;;;;25.37;11.73;;;;;;;-31.69;70.00;92257.81;4189364;28;21870;-75
2023/03/07 15:01:02;;;;;;;24.17;12.00;;;;;;;-31.70;71.04;92256.22;4192556;28;21832;-76
2023/03/07 15:03:29;;;;;;;31.13;12.23;;;;;;;-31.69;70.95;92257.81;4215563;28;20240;-73
2023/03/07 15:05:58;;;;;;;26.23;12.13;;;;;;;-31.61;70.35;92253.16;4195563;28;20302;-75
2023/03/07 15:08:30;;;;;;;26.90;11.73;;;;;;;-31.63;69.47;92249.19;4210500;28;20587;-75
2023/03/07 15:11:32;;;;;;;25.90;11.90;;;;;;;-31.49;69.67;92255.75;4193126;28;20247;-73
2023/03/07 15:14:38;;;;;;;29.53;11.30;;;;;;;-31.54;68.29;92252.78;4227023;28;20760;-73
2023/03/07 15:17:10;;;;;;;27.33;11.90;;;;;;;-31.53;68.37;92249.38;4172632;29;20237;-77
2023/03/07 15:19:41;;;;;;;26.07;11.83;;;;;;;-31.55;67.96;92251.16;4191686;28;20784;-78
2023/03/07 15:22:28;;;;;;;29.13;11.87;;;;;;;-31.59;68.12;92241.47;4211891;28;20316;-75
2023/03/07 15:24:54;;;;;;;24.53;10.13;;;;;;;-31.60;67.21;92239.06;4212743;28;20230;-71
2023/03/07 15:27:24;;;;;;;23.63;10.80;;;;;;;-31.60;67.76;92239.06;4216625;28;20233;-73
2023/03/07 15:29:51;;;;;;;23.37;10.37;;;;;;;-31.62;66.97;92234.22;4232358;28;21632;-72
2023/03/07 15:32:35;;;;;;;23.50;11.83;;;;;;;-31.63;67.31;92237.59;4222025;28;20371;-74
2023/03/07 15:35:16;;;;;;;22.97;10.17;;;;;;;-31.69;67.67;92235.53;4229307;28;20241;-77
2023/03/07 15:38:01;;;;;;;32.57;10.77;;;;;;;-31.67;67.35;92228.78;4206501;28;20230;-78
2023/03/07 15:40:35;;;;;;;20.23;10.37;;;;;;;-31.67;67.06;92227.97;4218711;28;20285;-75
2023/03/07 15:43:01;;;;;;;25.83;10.70;;;;;;;-31.70;67.45;92221.53;4228223;28;20325;-75
2023/03/07 15:45:38;;;;;;;27.60;10.70;;;;;;;-31.70;67.58;92221.53;4244679;28;20324;-76
2023/03/07 15:48:31;;;;;;;19.77;9.83;;;;;;;-31.68;66.43;92221.44;4219265;28;20310;-78
2023/03/07 15:51:00;;;;;;;22.00;9.97;;;;;;;-31.74;67.08;92216.88;4215256;28;23096;-70
2023/03/07 15:53:32;;;;;;;27.23;10.43;;;;;;;-31.73;66.84;92204.41;4226349;28;20421;-75
2023/03/07 15:56:00;;;;;;;30.27;10.83;;;;;;;-31.74;67.28;92207.75;4231894;28;21259;-73
2023/03/07 15:58:27;;;;;;;25.87;10.70;;;;;;;-31.75;67.18;92203.69;4238053;28;21965;-76
2023/03/07 16:01:20;;;;;;;32.47;10.83;;;;;;;-31.75;67.45;92195.47;4218031;28;20247;-74
2023/03/07 16:03:57;;;;;;;28.97;10.50;;;;;;;-31.77;67.35;92204.69;4228649;28;20281;-73
2023/03/07 16:06:44;;;;;;;22.67;10.00;;;;;;;-31.78;67.48;92196.47;4222545;28;20238;-75
2023/03/07 16:09:16;;;;;;;25.87;10.97;;;;;;;-31.82;68.13;92197.56;4237183;28;21231;-72
2023/03/07 16:11:44;;;;;;;25.47;10.80;;;;;;;-31.83;68.14;92189.34;4235142;28;20308;-72
2023/03/07 16:14:26;;;;;;;21.43;10.40;;;;;;;-31.80;67.87;92193.31;4229909;28;20238;-71
2023/03/07 16:16:56;;;;;;;21.47;10.40;;;;;;;-31.91;67.83;92185.78;4240343;28;21245;-74
2023/03/07 16:19:22;;;;;;;22.03;10.77;;;;;;;-31.93;68.97;92180.13;4240768;28;20594;-71
2023/03/07 16:21:49;;;;;;;23.50;10.80;;;;;;;-31.92;68.35;92176.75;4232983;28;20231;-75
2023/03/07 16:24:15;;;;;;;27.63;11.30;;;;;;;-31.91;68.42;92175.88;4226216;28;21816;-71
2023/03/07 16:26:43;;;;;;;29.90;12.57;;;;;;;-31.96;68.80;92175.41;4230493;28;20305;-75